sensor_id;sensor_type;location;lat;lon;timestamp;pressure;altitude;pressure_sealevel;temperature;humidity
15634;BME280;14654;48.898;8.308;2024-02-16T00:01:30;100067.78;;;11.03;100.00
15634;BME280;14654;48.898;8.308;2024-02-16T00:03:56;100072.06;;;11.04;100.00
15634;BME280;14654;48.898;8.308;2024-02-16T00:06:21;100066.91;;;11.04;100.00
15634;BME280;14654;48.898;8.308;2024-02-16T00:08:47;100066.13;;;10.97;100.00
15634;BME280;14654;48.898;8.308;2024-02-16T00:11:12;100061.91;;;10.91;100.00
15634;BME280;14654;48.898;8.308;2024-02-16T00:13:37;100055.91;;;10.86;100.00
15634;BME280;14654;48.898;8.308;2024-02-16T00:16:03;100062.00;;;10.83;100.00
15634;BME280;14654;48.898;8.308;2024-02-16T00:18:28;100054.25;;;10.82;100.00
15634;BME280;14654;48.898;8.308;2024-02-16T00:20:53;100057.78;;;10.78;100.00
15634;BME280;14654;48.898;8.308;2024-02-16T00:23:19;100062.09;;;10.74;100.00
15634;BME280;14654;48.898;8.308;2024-02-16T00:25:47;100064.69;;;10.74;100.00
15634;BME280;14654;48.898;8.308;2024-02-16T00:28:13;100073.31;;;10.76;100.00
15634;BME280;14654;48.898;8.308;2024-02-16T00:30:38;100064.66;;;10.79;100.00
15634;BME280;14654;48.898;8.308;2024-02-16T00:33:04;100062.06;;;10.79;100.00
15634;BME280;14654;48.898;8.308;2024-02-16T00:35:29;100059.47;;;10.79;100.00
15634;BME280;14654;48.898;8.308;2024-02-16T00:37:59;100065.50;;;10.79;100.00
15634;BME280;14654;48.898;8.308;2024-02-16T00:40:24;100065.50;;;10.81;100.00
15634;BME280;14654;48.898;8.308;2024-02-16T00:42:49;100069.78;;;10.82;100.00
15634;BME280;14654;48.898;8.308;2024-02-16T00:45:15;100064.59;;;10.83;100.00
15634;BME280;14654;48.898;8.308;2024-02-16T00:47:40;100071.53;;;10.81;100.00
15634;BME280;14654;48.898;8.308;2024-02-16T00:50:05;100063.75;;;10.81;100.00
15634;BME280;14654;48.898;8.308;2024-02-16T00:52:33;100064.59;;;10.82;100.00
15634;BME280;14654;48.898;8.308;2024-02-16T00:54:59;100059.41;;;10.82;100.00
15634;BME280;14654;48.898;8.308;2024-02-16T00:57:24;100061.19;;;10.80;100.00
15634;BME280;14654;48.898;8.308;2024-02-16T00:59:49;100058.56;;;10.81;100.00
15634;BME280;14654;48.898;8.308;2024-02-16T01:02:15;100048.19;;;10.83;100.00
15634;BME280;14654;48.898;8.308;2024-02-16T01:04:42;100049.03;;;10.87;100.00
15634;BME280;14654;48.898;8.308;2024-02-16T01:07:08;100044.69;;;10.87;100.00
15634;BME280;14654;48.898;8.308;2024-02-16T01:09:33;100050.75;;;10.88;100.00
15634;BME280;14654;48.898;8.308;2024-02-16T01:11:59;100050.75;;;10.88;100.00
15634;BME280;14654;48.898;8.308;2024-02-16T01:14:24;100049.00;;;10.88;100.00
15634;BME280;14654;48.898;8.308;2024-02-16T01:16:49;100055.06;;;10.86;100.00
15634;BME280;14654;48.898;8.308;2024-02-16T01:19:15;100050.88;;;10.75;100.00
15634;BME280;14654;48.898;8.308;2024-02-16T01:21:40;100053.63;;;10.64;100.00
15634;BME280;14654;48.898;8.308;2024-02-16T01:24:06;100060.69;;;10.51;100.00
15634;BME280;14654;48.898;8.308;2024-02-16T01:26:32;100060.81;;;10.41;100.00
15634;BME280;14654;48.898;8.308;2024-02-16T01:28:58;100052.22;;;10.34;100.00
15634;BME280;14654;48.898;8.308;2024-02-16T01:31:23;100051.47;;;10.24;100.00
15634;BME280;14654;48.898;8.308;2024-02-16T01:33:48;100054.13;;;10.19;100.00
15634;BME280;14654;48.898;8.308;2024-02-16T01:36:14;100047.28;;;10.17;100.00
15634;BME280;14654;48.898;8.308;2024-02-16T01:38:39;100048.97;;;10.16;100.00
15634;BME280;14654;48.898;8.308;2024-02-16T01:41:04;100053.31;;;10.14;100.00
15634;BME280;14654;48.898;8.308;2024-02-16T01:43:32;100048.13;;;10.14;100.00
15634;BME280;14654;48.898;8.308;2024-02-16T01:45:57;100055.91;;;10.16;100.00
15634;BME280;14654;48.898;8.308;2024-02-16T01:48:25;100061.88;;;10.19;100.00
15634;BME280;14654;48.898;8.308;2024-02-16T01:50:52;100052.41;;;10.20;100.00
15634;BME280;14654;48.898;8.308;2024-02-16T01:53:18;100057.53;;;10.23;100.00
15634;BME280;14654;48.898;8.308;2024-02-16T01:55:47;100058.44;;;10.20;100.00
15634;BME280;14654;48.898;8.308;2024-02-16T01:58:13;100050.69;;;10.19;100.00
15634;BME280;14654;48.898;8.308;2024-02-16T02:00:39;100051.59;;;10.15;100.00
15634;BME280;14654;48.898;8.308;2024-02-16T02:03:05;100061.09;;;10.13;100.00
15634;BME280;14654;48.898;8.308;2024-02-16T02:05:31;100062.00;;;10.10;100.00
15634;BME280;14654;48.898;8.308;2024-02-16T02:07:56;100059.41;;;10.10;100.00
15634;BME280;14654;48.898;8.308;2024-02-16T02:10:22;100053.38;;;10.11;100.00
15634;BME280;14654;48.898;8.308;2024-02-16T02:12:47;100055.94;;;10.13;100.00
15634;BME280;14654;48.898;8.308;2024-02-16T02:15:12;100056.78;;;10.12;100.00
15634;BME280;14654;48.898;8.308;2024-02-16T02:17:38;100044.75;;;10.11;100.00
15634;BME280;14654;48.898;8.308;2024-02-16T02:20:04;100045.63;;;10.11;100.00
15634;BME280;14654;48.898;8.308;2024-02-16T02:22:33;100043.06;;;10.08;100.00
15634;BME280;14654;48.898;8.308;2024-02-16T02:24:58;100037.91;;;10.05;100.00
15634;BME280;14654;48.898;8.308;2024-02-16T02:27:23;100043.09;;;10.02;100.00
15634;BME280;14654;48.898;8.308;2024-02-16T02:29:48;100040.53;;;9.99;100.00
15634;BME280;14654;48.898;8.308;2024-02-16T02:32:15;100056.94;;;9.99;100.00
15634;BME280;14654;48.898;8.308;2024-02-16T02:34:40;100042.25;;;10.01;100.00
15634;BME280;14654;48.898;8.308;2024-02-16T02:37:05;100047.50;;;9.97;100.00
15634;BME280;14654;48.898;8.308;2024-02-16T02:39:32;100045.78;;;9.94;100.00
15634;BME280;14654;48.898;8.308;2024-02-16T02:41:57;100050.97;;;9.93;100.00
15634;BME280;14654;48.898;8.308;2024-02-16T02:44:26;100050.97;;;9.93;100.00
15634;BME280;14654;48.898;8.308;2024-02-16T02:46:51;100044.94;;;9.94;100.00
15634;BME280;14654;48.898;8.308;2024-02-16T02:49:17;100050.06;;;9.95;100.00
15634;BME280;14654;48.898;8.308;2024-02-16T02:51:43;100044.94;;;9.94;100.00
15634;BME280;14654;48.898;8.308;2024-02-16T02:54:08;100044.06;;;9.93;100.00
15634;BME280;14654;48.898;8.308;2024-02-16T02:56:33;100041.44;;;9.96;100.00
15634;BME280;14654;48.898;8.308;2024-02-16T02:58:59;100032.84;;;9.96;100.00
15634;BME280;14654;48.898;8.308;2024-02-16T03:01:24;100036.28;;;9.98;100.00
15634;BME280;14654;48.898;8.308;2024-02-16T03:03:49;100041.41;;;9.99;100.00
15634;BME280;14654;48.898;8.308;2024-02-16T03:06:21;100043.09;;;10.02;100.00
15634;BME280;14654;48.898;8.308;2024-02-16T03:08:46;100031.91;;;10.01;100.00
15634;BME280;14654;48.898;8.308;2024-02-16T03:11:12;100031.94;;;9.98;100.00
15634;BME280;14654;48.898;8.308;2024-02-16T03:13:37;100023.31;;;9.99;100.00
15634;BME280;14654;48.898;8.308;2024-02-16T03:16:03;100025.94;;;9.96;100.00
15634;BME280;14654;48.898;8.308;2024-02-16T03:18:32;100029.41;;;9.92;100.00
15634;BME280;14654;48.898;8.308;2024-02-16T03:20:58;100032.91;;;9.89;100.00
15634;BME280;14654;48.898;8.308;2024-02-16T03:23:23;100033.78;;;9.87;100.00
15634;BME280;14654;48.898;8.308;2024-02-16T03:25:49;100032.06;;;9.87;100.00
15634;BME280;14654;48.898;8.308;2024-02-16T03:28:14;100032.06;;;9.87;100.00
15634;BME280;14654;48.898;8.308;2024-02-16T03:30:41;100032.94;;;9.88;100.00
15634;BME280;14654;48.898;8.308;2024-02-16T03:33:07;100028.63;;;9.85;100.00
15634;BME280;14654;48.898;8.308;2024-02-16T03:35:33;100026.91;;;9.84;100.00
15634;BME280;14654;48.898;8.308;2024-02-16T03:37:58;100028.66;;;9.84;100.00
15634;BME280;14654;48.898;8.308;2024-02-16T03:40:24;100032.09;;;9.83;100.00
15634;BME280;14654;48.898;8.308;2024-02-16T03:42:50;100027.78;;;9.85;100.00
15634;BME280;14654;48.898;8.308;2024-02-16T03:45:16;100029.53;;;9.83;100.00
15634;BME280;14654;48.898;8.308;2024-02-16T03:47:41;100032.13;;;9.80;100.00
15634;BME280;14654;48.898;8.308;2024-02-16T03:50:07;100039.03;;;9.77;100.00
15634;BME280;14654;48.898;8.308;2024-02-16T03:52:32;100034.78;;;9.73;100.00
15634;BME280;14654;48.898;8.308;2024-02-16T03:54:58;100038.25;;;9.71;100.00
15634;BME280;14654;48.898;8.308;2024-02-16T03:57:24;100040.84;;;9.69;100.00
15634;BME280;14654;48.898;8.308;2024-02-16T03:59:49;100039.19;;;9.64;100.00
15634;BME280;14654;48.898;8.308;2024-02-16T04:02:14;100045.22;;;9.61;100.00
15634;BME280;14654;48.898;8.308;2024-02-16T04:04:40;100048.69;;;9.60;100.00
15634;BME280;14654;48.898;8.308;2024-02-16T04:07:05;100050.44;;;9.53;100.00
15634;BME280;14654;48.898;8.308;2024-02-16T04:09:34;100039.31;;;9.46;100.00
15634;BME280;14654;48.898;8.308;2024-02-16T04:12:00;100050.50;;;9.45;100.00
15634;BME280;14654;48.898;8.308;2024-02-16T04:14:25;100051.44;;;9.41;100.00
15634;BME280;14654;48.898;8.308;2024-02-16T04:16:50;100050.63;;;9.32;100.00
15634;BME280;14654;48.898;8.308;2024-02-16T04:19:15;100055.84;;;9.24;100.00
15634;BME280;14654;48.898;8.308;2024-02-16T04:21:41;100061.06;;;9.18;100.00
15634;BME280;14654;48.898;8.308;2024-02-16T04:24:07;100065.41;;;9.11;100.00
15634;BME280;14654;48.898;8.308;2024-02-16T04:26:32;100064.59;;;9.06;100.00
15634;BME280;14654;48.898;8.308;2024-02-16T04:28:58;100062.00;;;9.04;100.00
15634;BME280;14654;48.898;8.308;2024-02-16T04:31:23;100063.75;;;9.00;100.00
15634;BME280;14654;48.898;8.308;2024-02-16T04:33:48;100071.53;;;8.99;100.00
15634;BME280;14654;48.898;8.308;2024-02-16T04:36:14;100074.09;;;9.00;100.00
15634;BME280;14654;48.898;8.308;2024-02-16T04:38:40;100070.63;;;9.02;100.00
15634;BME280;14654;48.898;8.308;2024-02-16T04:41:05;100076.66;;;9.00;100.00
15634;BME280;14654;48.898;8.308;2024-02-16T04:43:31;100079.25;;;8.97;100.00
15634;BME280;14654;48.898;8.308;2024-02-16T04:45:56;100080.13;;;8.96;100.00
15634;BME280;14654;48.898;8.308;2024-02-16T04:48:21;100081.84;;;8.97;100.00
15634;BME280;14654;48.898;8.308;2024-02-16T04:50:47;100088.72;;;8.98;100.00
15634;BME280;14654;48.898;8.308;2024-02-16T04:53:12;100083.56;;;8.95;100.00
15634;BME280;14654;48.898;8.308;2024-02-16T04:55:37;100085.28;;;8.93;100.00
15634;BME280;14654;48.898;8.308;2024-02-16T04:58:03;100089.63;;;8.93;100.00
15634;BME280;14654;48.898;8.308;2024-02-16T05:00:34;100087.06;;;8.91;100.00
15634;BME280;14654;48.898;8.308;2024-02-16T05:02:59;100086.16;;;8.94;100.00
15634;BME280;14654;48.898;8.308;2024-02-16T05:05:24;100090.44;;;8.96;100.00
15634;BME280;14654;48.898;8.308;2024-02-16T05:07:50;100081.84;;;8.99;100.00
15634;BME280;14654;48.898;8.308;2024-02-16T05:10:15;100074.94;;;9.03;100.00
15634;BME280;14654;48.898;8.308;2024-02-16T05:12:41;100068.88;;;9.05;100.00
15634;BME280;14654;48.898;8.308;2024-02-16T05:15:07;100072.31;;;9.10;100.00
15634;BME280;14654;48.898;8.308;2024-02-16T05:17:32;100067.13;;;9.13;100.00
15634;BME280;14654;48.898;8.308;2024-02-16T05:19:57;100070.53;;;9.17;100.00
15634;BME280;14654;48.898;8.308;2024-02-16T05:22:23;100079.13;;;9.21;100.00
15634;BME280;14654;48.898;8.308;2024-02-16T05:24:48;100075.66;;;9.25;100.00
15634;BME280;14654;48.898;8.308;2024-02-16T05:27:13;100073.84;;;9.33;100.00
15634;BME280;14654;48.898;8.308;2024-02-16T05:29:40;100078.28;;;9.15;100.00
15634;BME280;14654;48.898;8.308;2024-02-16T05:32:05;100076.63;;;9.07;100.00
15634;BME280;14654;48.898;8.308;2024-02-16T05:34:31;100076.66;;;9.04;100.00
15634;BME280;14654;48.898;8.308;2024-02-16T05:37:06;100079.22;;;9.02;100.00
15634;BME280;14654;48.898;8.308;2024-02-16T05:39:32;100074.97;;;8.98;100.00
15634;BME280;14654;48.898;8.308;2024-02-16T05:42:00;100071.50;;;8.97;100.00
15634;BME280;14654;48.898;8.308;2024-02-16T05:44:26;100082.69;;;8.99;100.00
15634;BME280;14654;48.898;8.308;2024-02-16T05:46:51;100085.28;;;8.99;100.00
15634;BME280;14654;48.898;8.308;2024-02-16T05:49:17;100085.25;;;9.01;100.00
15634;BME280;14654;48.898;8.308;2024-02-16T05:51:42;100094.72;;;9.00;100.00
15634;BME280;14654;48.898;8.308;2024-02-16T05:54:22;100092.16;;;9.00;100.00
15634;BME280;14654;48.898;8.308;2024-02-16T05:56:47;100090.41;;;9.01;100.00
15634;BME280;14654;48.898;8.308;2024-02-16T05:59:14;100091.28;;;9.02;100.00
15634;BME280;14654;48.898;8.308;2024-02-16T06:01:39;100096.44;;;9.02;100.00
15634;BME280;14654;48.898;8.308;2024-02-16T06:04:04;100098.16;;;9.04;100.00
15634;BME280;14654;48.898;8.308;2024-02-16T06:06:30;100104.16;;;9.03;100.00
15634;BME280;14654;48.898;8.308;2024-02-16T06:08:55;100109.31;;;9.06;100.00
15634;BME280;14654;48.898;8.308;2024-02-16T06:11:20;100114.50;;;9.06;100.00
15634;BME280;14654;48.898;8.308;2024-02-16T06:13:46;100113.63;;;9.07;100.00
15634;BME280;14654;48.898;8.308;2024-02-16T06:16:11;100111.91;;;9.09;100.00
15634;BME280;14654;48.898;8.308;2024-02-16T06:18:36;100110.16;;;9.11;100.00
15634;BME280;14654;48.898;8.308;2024-02-16T06:21:02;100116.19;;;9.10;100.00
15634;BME280;14654;48.898;8.308;2024-02-16T06:23:27;100118.75;;;9.09;100.00
15634;BME280;14654;48.898;8.308;2024-02-16T06:25:52;100121.34;;;9.09;100.00
15634;BME280;14654;48.898;8.308;2024-02-16T06:28:18;100120.47;;;9.10;100.00
15634;BME280;14654;48.898;8.308;2024-02-16T06:30:43;100133.41;;;9.11;100.00
15634;BME280;14654;48.898;8.308;2024-02-16T06:33:08;100140.28;;;9.11;100.00
15634;BME280;14654;48.898;8.308;2024-02-16T06:35:35;100147.19;;;9.10;100.00
15634;BME280;14654;48.898;8.308;2024-02-16T06:38:00;100144.56;;;9.09;100.00
15634;BME280;14654;48.898;8.308;2024-02-16T06:40:25;100145.44;;;9.09;100.00
15634;BME280;14654;48.898;8.308;2024-02-16T06:42:52;100148.03;;;9.11;100.00
15634;BME280;14654;48.898;8.308;2024-02-16T06:45:17;100153.19;;;9.12;100.00
15634;BME280;14654;48.898;8.308;2024-02-16T06:47:42;100154.03;;;9.10;100.00
15634;BME280;14654;48.898;8.308;2024-02-16T06:50:08;100156.63;;;9.10;100.00
15634;BME280;14654;48.898;8.308;2024-02-16T06:52:33;100153.19;;;9.08;100.00
15634;BME280;14654;48.898;8.308;2024-02-16T06:54:59;100164.38;;;9.08;100.00
15634;BME280;14654;48.898;8.308;2024-02-16T06:57:24;100160.09;;;9.07;100.00
15634;BME280;14654;48.898;8.308;2024-02-16T06:59:50;100168.69;;;9.06;100.00
15634;BME280;14654;48.898;8.308;2024-02-16T07:02:18;100171.25;;;9.08;100.00
15634;BME280;14654;48.898;8.308;2024-02-16T07:04:43;100167.81;;;9.09;100.00
15634;BME280;14654;48.898;8.308;2024-02-16T07:07:11;100172.97;;;9.13;100.00
15634;BME280;14654;48.898;8.308;2024-02-16T07:09:36;100178.13;;;9.18;100.00
15634;BME280;14654;48.898;8.308;2024-02-16T07:12:02;100177.19;;;9.28;100.00
15634;BME280;14654;48.898;8.308;2024-02-16T07:14:27;100181.44;;;9.39;100.00
15634;BME280;14654;48.898;8.308;2024-02-16T07:16:53;100173.59;;;9.53;100.00
15634;BME280;14654;48.898;8.308;2024-02-16T07:19:18;100184.69;;;9.70;100.00
15634;BME280;14654;48.898;8.308;2024-02-16T07:21:44;100188.00;;;9.86;100.00
15634;BME280;14654;48.898;8.308;2024-02-16T07:24:09;100183.59;;;9.99;100.00
15634;BME280;14654;48.898;8.308;2024-02-16T07:26:35;100191.25;;;10.13;100.00
15634;BME280;14654;48.898;8.308;2024-02-16T07:29:01;100182.53;;;10.24;100.00
15634;BME280;14654;48.898;8.308;2024-02-16T07:31:32;100179.00;;;10.35;100.00
15634;BME280;14654;48.898;8.308;2024-02-16T07:33:58;100184.06;;;10.46;100.00
15634;BME280;14654;48.898;8.308;2024-02-16T07:36:23;100177.94;;;10.57;100.00
15634;BME280;14654;48.898;8.308;2024-02-16T07:38:48;100182.16;;;10.65;100.00
15634;BME280;14654;48.898;8.308;2024-02-16T07:41:14;100189.78;;;10.76;100.00
15634;BME280;14654;48.898;8.308;2024-02-16T07:43:39;100181.91;;;10.87;100.00
15634;BME280;14654;48.898;8.308;2024-02-16T07:46:04;100180.97;;;10.94;100.00
15634;BME280;14654;48.898;8.308;2024-02-16T07:48:30;100185.19;;;11.02;100.00
15634;BME280;14654;48.898;8.308;2024-02-16T07:50:55;100187.66;;;11.09;100.00
15634;BME280;14654;48.898;8.308;2024-02-16T07:53:23;100190.19;;;11.16;100.00
15634;BME280;14654;48.898;8.308;2024-02-16T07:55:48;100200.47;;;11.22;100.00
15634;BME280;14654;48.898;8.308;2024-02-16T07:58:14;100200.38;;;11.28;100.00
15634;BME280;14654;48.898;8.308;2024-02-16T08:00:39;100203.72;;;11.36;100.00
15634;BME280;14654;48.898;8.308;2024-02-16T08:03:04;100211.44;;;11.41;100.00
15634;BME280;14654;48.898;8.308;2024-02-16T08:05:30;100208.81;;;11.42;100.00
15634;BME280;14654;48.898;8.308;2024-02-16T08:07:55;100211.38;;;11.46;100.00
15634;BME280;14654;48.898;8.308;2024-02-16T08:10:21;100215.66;;;11.48;100.00
15634;BME280;14654;48.898;8.308;2024-02-16T08:12:46;100206.13;;;11.50;100.00
15634;BME280;14654;48.898;8.308;2024-02-16T08:15:12;100208.69;;;11.52;100.00
15634;BME280;14654;48.898;8.308;2024-02-16T08:17:39;100205.22;;;11.54;100.00
15634;BME280;14654;48.898;8.308;2024-02-16T08:20:06;100214.72;;;11.55;100.00
15634;BME280;14654;48.898;8.308;2024-02-16T08:22:31;100208.56;;;11.59;100.00
15634;BME280;14654;48.898;8.308;2024-02-16T08:24:58;100217.16;;;11.65;100.00
15634;BME280;14654;48.898;8.308;2024-02-16T08:27:23;100213.63;;;11.70;100.00
15634;BME280;14654;48.898;8.308;2024-02-16T08:29:50;100217.00;;;11.76;100.00
15634;BME280;14654;48.898;8.308;2024-02-16T08:32:17;100223.00;;;11.79;100.00
15634;BME280;14654;48.898;8.308;2024-02-16T08:34:43;100233.31;;;11.82;100.00
15634;BME280;14654;48.898;8.308;2024-02-16T08:37:09;100234.09;;;11.87;100.00
15634;BME280;14654;48.898;8.308;2024-02-16T08:39:37;100228.84;;;11.92;100.00
15634;BME280;14654;48.898;8.308;2024-02-16T08:42:03;100234.00;;;11.94;100.00
15634;BME280;14654;48.898;8.308;2024-02-16T08:44:29;100242.63;;;11.99;100.00
15634;BME280;14654;48.898;8.308;2024-02-16T08:46:54;100242.53;;;12.03;100.00
15634;BME280;14654;48.898;8.308;2024-02-16T08:49:20;100243.34;;;12.09;100.00
15634;BME280;14654;48.898;8.308;2024-02-16T08:51:45;100237.19;;;12.14;100.00
15634;BME280;14654;48.898;8.308;2024-02-16T08:54:10;100235.31;;;12.23;100.00
15634;BME280;14654;48.898;8.308;2024-02-16T08:56:36;100235.19;;;12.30;100.00
15634;BME280;14654;48.898;8.308;2024-02-16T08:59:06;100241.06;;;12.40;100.00
15634;BME280;14654;48.898;8.308;2024-02-16T09:01:36;100244.34;;;12.52;100.00
15634;BME280;14654;48.898;8.308;2024-02-16T09:04:02;100249.28;;;12.64;100.00
15634;BME280;14654;48.898;8.308;2024-02-16T09:06:28;100248.22;;;12.77;100.00
15634;BME280;14654;48.898;8.308;2024-02-16T09:08:54;100250.66;;;12.85;100.00
15634;BME280;14654;48.898;8.308;2024-02-16T09:11:20;100254.78;;;12.95;100.00
15634;BME280;14654;48.898;8.308;2024-02-16T09:13:45;100257.19;;;13.06;100.00
15634;BME280;14654;48.898;8.308;2024-02-16T09:16:11;100251.78;;;13.16;100.00
15634;BME280;14654;48.898;8.308;2024-02-16T09:18:36;100259.34;;;13.28;100.00
15634;BME280;14654;48.898;8.308;2024-02-16T09:21:05;100265.19;;;13.38;100.00
15634;BME280;14654;48.898;8.308;2024-02-16T09:23:32;100265.97;;;13.45;100.00
15634;BME280;14654;48.898;8.308;2024-02-16T09:25:57;100268.50;;;13.46;100.00
15634;BME280;14654;48.898;8.308;2024-02-16T09:28:24;100266.66;;;13.53;100.00
15634;BME280;14654;48.898;8.308;2024-02-16T09:30:49;100267.38;;;13.60;100.00
15634;BME280;14654;48.898;8.308;2024-02-16T09:33:15;100267.22;;;13.67;100.00
15634;BME280;14654;48.898;8.308;2024-02-16T09:35:40;100270.53;;;13.74;100.00
15634;BME280;14654;48.898;8.308;2024-02-16T09:38:06;100268.59;;;13.82;100.00
15634;BME280;14654;48.898;8.308;2024-02-16T09:40:31;100271.19;;;13.84;100.00
15634;BME280;14654;48.898;8.308;2024-02-16T09:42:57;100276.28;;;13.89;100.00
15634;BME280;14654;48.898;8.308;2024-02-16T09:45:23;100273.63;;;13.90;100.00
15634;BME280;14654;48.898;8.308;2024-02-16T09:47:50;100273.69;;;13.89;100.00
15634;BME280;14654;48.898;8.308;2024-02-16T09:50:16;100272.81;;;13.88;100.00
15634;BME280;14654;48.898;8.308;2024-02-16T09:52:46;100278.00;;;13.88;100.00
15634;BME280;14654;48.898;8.308;2024-02-16T09:55:14;100282.31;;;13.89;100.00
15634;BME280;14654;48.898;8.308;2024-02-16T09:57:39;100282.31;;;13.91;100.00
15634;BME280;14654;48.898;8.308;2024-02-16T10:00:05;100283.09;;;13.93;100.00
15634;BME280;14654;48.898;8.308;2024-02-16T10:02:45;100291.72;;;13.95;100.00
15634;BME280;14654;48.898;8.308;2024-02-16T10:05:15;100295.94;;;14.00;100.00
15634;BME280;14654;48.898;8.308;2024-02-16T10:07:41;100297.59;;;14.05;100.00
15634;BME280;14654;48.898;8.308;2024-02-16T10:10:22;100295.03;;;14.03;100.00
15634;BME280;14654;48.898;8.308;2024-02-16T10:12:48;100306.22;;;14.07;100.00
15634;BME280;14654;48.898;8.308;2024-02-16T10:15:22;100307.94;;;14.08;100.00
15634;BME280;14654;48.898;8.308;2024-02-16T10:20:28;100309.53;;;14.13;100.00
15634;BME280;14654;48.898;8.308;2024-02-16T10:25:38;100315.38;;;14.23;100.00
15634;BME280;14654;48.898;8.308;2024-02-16T10:28:08;100318.75;;;14.28;100.00
15634;BME280;14654;48.898;8.308;2024-02-16T10:30:37;100324.66;;;14.33;100.00
15634;BME280;14654;48.898;8.308;2024-02-16T10:33:04;100323.66;;;14.41;100.00
15634;BME280;14654;48.898;8.308;2024-02-16T10:35:31;100322.63;;;14.46;100.00
15634;BME280;14654;48.898;8.308;2024-02-16T10:38:00;100327.59;;;14.56;100.00
15634;BME280;14654;48.898;8.308;2024-02-16T10:40:27;100325.59;;;14.69;100.00
15634;BME280;14654;48.898;8.308;2024-02-16T10:42:54;100321.91;;;14.77;100.00
15634;BME280;14654;48.898;8.308;2024-02-16T10:45:20;100324.13;;;14.91;100.00
15634;BME280;14654;48.898;8.308;2024-02-16T10:47:46;100325.41;;;15.08;100.00
15634;BME280;14654;48.898;8.308;2024-02-16T10:50:12;100325.00;;;15.23;100.00
15634;BME280;14654;48.898;8.308;2024-02-16T10:52:39;100329.66;;;15.44;100.00
15634;BME280;14654;48.898;8.308;2024-02-16T10:55:06;100318.44;;;15.42;100.00
15634;BME280;14654;48.898;8.308;2024-02-16T10:57:35;100324.78;;;15.63;100.00
15634;BME280;14654;48.898;8.308;2024-02-16T11:00:07;100324.34;;;16.07;100.00
15634;BME280;14654;48.898;8.308;2024-02-16T11:02:51;100320.97;;;16.32;100.00
15634;BME280;14654;48.898;8.308;2024-02-16T11:05:18;100317.97;;;16.44;100.00
15634;BME280;14654;48.898;8.308;2024-02-16T11:07:44;100314.59;;;16.92;100.00
15634;BME280;14654;48.898;8.308;2024-02-16T11:10:12;100316.50;;;17.38;100.00
15634;BME280;14654;48.898;8.308;2024-02-16T11:12:37;100316.59;;;17.59;100.00
15634;BME280;14654;48.898;8.308;2024-02-16T11:15:07;100311.94;;;17.67;99.61
15634;BME280;14654;48.898;8.308;2024-02-16T11:17:34;100313.97;;;17.82;99.71
15634;BME280;14654;48.898;8.308;2024-02-16T11:20:00;100311.66;;;17.97;97.93
15634;BME280;14654;48.898;8.308;2024-02-16T11:22:27;100318.44;;;18.03;97.83
15634;BME280;14654;48.898;8.308;2024-02-16T11:24:53;100316.94;;;17.95;96.14
15634;BME280;14654;48.898;8.308;2024-02-16T11:27:20;100314.44;;;17.92;95.88
15634;BME280;14654;48.898;8.308;2024-02-16T11:29:46;100320.94;;;18.06;96.01
15634;BME280;14654;48.898;8.308;2024-02-16T11:32:12;100318.19;;;18.09;95.83
15634;BME280;14654;48.898;8.308;2024-02-16T11:34:38;100323.34;;;17.88;95.17
15634;BME280;14654;48.898;8.308;2024-02-16T11:37:04;100323.88;;;17.98;95.42
15634;BME280;14654;48.898;8.308;2024-02-16T11:39:33;100327.34;;;17.75;95.48
15634;BME280;14654;48.898;8.308;2024-02-16T11:42:12;100328.19;;;17.99;96.41
15634;BME280;14654;48.898;8.308;2024-02-16T11:44:39;100319.28;;;18.25;96.36
15634;BME280;14654;48.898;8.308;2024-02-16T11:47:06;100323.41;;;18.09;95.61
15634;BME280;14654;48.898;8.308;2024-02-16T11:49:35;100331.22;;;18.10;94.87
15634;BME280;14654;48.898;8.308;2024-02-16T11:52:04;100325.25;;;18.29;94.42
15634;BME280;14654;48.898;8.308;2024-02-16T11:54:29;100323.38;;;18.53;95.22
15634;BME280;14654;48.898;8.308;2024-02-16T11:56:55;100327.66;;;18.77;94.33
15634;BME280;14654;48.898;8.308;2024-02-16T11:59:21;100325.03;;;18.77;94.67
15634;BME280;14654;48.898;8.308;2024-02-16T12:01:56;100328.75;;;18.71;95.35
15634;BME280;14654;48.898;8.308;2024-02-16T12:04:26;100327.84;;;18.72;94.94
15634;BME280;14654;48.898;8.308;2024-02-16T12:06:55;100326.69;;;18.79;95.05
15634;BME280;14654;48.898;8.308;2024-02-16T12:09:20;100326.94;;;18.73;93.88
15634;BME280;14654;48.898;8.308;2024-02-16T12:11:48;100323.88;;;18.41;94.57
15634;BME280;14654;48.898;8.308;2024-02-16T12:14:15;100323.19;;;18.58;94.50
15634;BME280;14654;48.898;8.308;2024-02-16T12:16:40;100323.06;;;18.61;93.74
15634;BME280;14654;48.898;8.308;2024-02-16T12:19:06;100329.75;;;18.25;94.29
15634;BME280;14654;48.898;8.308;2024-02-16T12:21:31;100325.13;;;18.32;94.75
15634;BME280;14654;48.898;8.308;2024-02-16T12:23:57;100324.94;;;18.37;94.82
15634;BME280;14654;48.898;8.308;2024-02-16T12:26:22;100327.09;;;18.27;95.18
15634;BME280;14654;48.898;8.308;2024-02-16T12:28:48;100335.00;;;18.25;96.01
15634;BME280;14654;48.898;8.308;2024-02-16T12:31:21;100341.03;;;18.27;96.54
15634;BME280;14654;48.898;8.308;2024-02-16T12:33:46;100347.66;;;18.36;96.91
15634;BME280;14654;48.898;8.308;2024-02-16T12:36:12;100339.88;;;18.35;97.59
15634;BME280;14654;48.898;8.308;2024-02-16T12:38:37;100334.44;;;18.39;98.63
15634;BME280;14654;48.898;8.308;2024-02-16T12:41:03;100338.13;;;18.56;98.34
15634;BME280;14654;48.898;8.308;2024-02-16T12:43:28;100342.34;;;18.38;98.17
15634;BME280;14654;48.898;8.308;2024-02-16T12:45:54;100344.38;;;18.31;99.08